sensor_id;sensor_type;location;lat;lon;timestamp;P1;durP1;ratioP1;P2;durP2;ratioP2
18780;SDS011;9519;51.890;8.970;2023-05-25T00:00:34;18.60;;;9.30;;
18780;SDS011;9519;51.890;8.970;2023-05-25T00:05:36;20.73;;;9.47;;
18780;SDS011;9519;51.890;8.970;2023-05-25T00:10:38;14.73;;;8.17;;
18780;SDS011;9519;51.890;8.970;2023-05-25T00:15:42;18.83;;;9.10;;
18780;SDS011;9519;51.890;8.970;2023-05-25T00:20:44;16.63;;;9.43;;
18780;SDS011;9519;51.890;8.970;2023-05-25T00:25:49;17.10;;;9.40;;
18780;SDS011;9519;51.890;8.970;2023-05-25T00:30:52;20.50;;;9.97;;
18780;SDS011;9519;51.890;8.970;2023-05-25T00:35:54;20.00;;;9.70;;
18780;SDS011;9519;51.890;8.970;2023-05-25T00:40:57;19.13;;;9.67;;
18780;SDS011;9519;51.890;8.970;2023-05-25T00:46:03;15.67;;;8.17;;
18780;SDS011;9519;51.890;8.970;2023-05-25T00:51:06;18.23;;;9.23;;
18780;SDS011;9519;51.890;8.970;2023-05-25T00:56:13;20.93;;;9.80;;
18780;SDS011;9519;51.890;8.970;2023-05-25T01:01:21;18.27;;;9.50;;
18780;SDS011;9519;51.890;8.970;2023-05-25T01:06:25;18.30;;;9.17;;
18780;SDS011;9519;51.890;8.970;2023-05-25T01:11:34;19.50;;;10.03;;
18780;SDS011;9519;51.890;8.970;2023-05-25T01:16:41;18.07;;;9.30;;
18780;SDS011;9519;51.890;8.970;2023-05-25T01:21:47;17.77;;;8.80;;
18780;SDS011;9519;51.890;8.970;2023-05-25T01:27:02;21.37;;;10.10;;
18780;SDS011;9519;51.890;8.970;2023-05-25T01:32:16;16.60;;;9.53;;
18780;SDS011;9519;51.890;8.970;2023-05-25T01:37:21;16.27;;;9.47;;
18780;SDS011;9519;51.890;8.970;2023-05-25T01:42:25;18.30;;;10.17;;
18780;SDS011;9519;51.890;8.970;2023-05-25T01:47:28;17.07;;;9.27;;
18780;SDS011;9519;51.890;8.970;2023-05-25T01:52:44;21.37;;;10.20;;
18780;SDS011;9519;51.890;8.970;2023-05-25T01:57:56;21.63;;;10.30;;
18780;SDS011;9519;51.890;8.970;2023-05-25T02:03:01;20.23;;;11.07;;
18780;SDS011;9519;51.890;8.970;2023-05-25T02:08:05;17.83;;;10.70;;
18780;SDS011;9519;51.890;8.970;2023-05-25T02:13:08;20.43;;;11.53;;
18780;SDS011;9519;51.890;8.970;2023-05-25T02:18:10;19.27;;;10.47;;
18780;SDS011;9519;51.890;8.970;2023-05-25T02:23:14;28.73;;;13.00;;
18780;SDS011;9519;51.890;8.970;2023-05-25T02:28:17;27.90;;;14.30;;
18780;SDS011;9519;51.890;8.970;2023-05-25T02:33:19;20.07;;;12.40;;
18780;SDS011;9519;51.890;8.970;2023-05-25T02:38:23;25.00;;;13.80;;
18780;SDS011;9519;51.890;8.970;2023-05-25T02:43:25;30.07;;;14.73;;
18780;SDS011;9519;51.890;8.970;2023-05-25T02:48:28;23.10;;;13.73;;
18780;SDS011;9519;51.890;8.970;2023-05-25T02:53:32;25.17;;;12.50;;
18780;SDS011;9519;51.890;8.970;2023-05-25T02:58:34;22.97;;;13.00;;
18780;SDS011;9519;51.890;8.970;2023-05-25T03:03:36;28.07;;;13.80;;
18780;SDS011;9519;51.890;8.970;2023-05-25T03:08:39;27.60;;;14.07;;
18780;SDS011;9519;51.890;8.970;2023-05-25T03:13:41;17.30;;;10.77;;
18780;SDS011;9519;51.890;8.970;2023-05-25T03:18:43;30.77;;;14.03;;
18780;SDS011;9519;51.890;8.970;2023-05-25T03:23:46;21.00;;;12.10;;
18780;SDS011;9519;51.890;8.970;2023-05-25T03:28:49;25.07;;;13.70;;
18780;SDS011;9519;51.890;8.970;2023-05-25T03:33:51;16.93;;;11.13;;
18780;SDS011;9519;51.890;8.970;2023-05-25T03:38:54;20.97;;;11.27;;
18780;SDS011;9519;51.890;8.970;2023-05-25T03:43:56;99.63;;;15.03;;
18780;SDS011;9519;51.890;8.970;2023-05-25T03:48:58;21.30;;;11.87;;
18780;SDS011;9519;51.890;8.970;2023-05-25T03:54:02;20.30;;;10.80;;
18780;SDS011;9519;51.890;8.970;2023-05-25T03:59:04;21.20;;;11.33;;
18780;SDS011;9519;51.890;8.970;2023-05-25T04:04:06;22.13;;;12.03;;
18780;SDS011;9519;51.890;8.970;2023-05-25T04:09:09;18.30;;;10.83;;
18780;SDS011;9519;51.890;8.970;2023-05-25T04:14:11;23.03;;;11.90;;
18780;SDS011;9519;51.890;8.970;2023-05-25T04:19:13;24.57;;;13.10;;
18780;SDS011;9519;51.890;8.970;2023-05-25T04:24:17;29.37;;;13.67;;
18780;SDS011;9519;51.890;8.970;2023-05-25T04:29:19;53.83;;;15.47;;
18780;SDS011;9519;51.890;8.970;2023-05-25T04:34:21;50.60;;;18.17;;
18780;SDS011;9519;51.890;8.970;2023-05-25T04:39:24;63.53;;;22.23;;
18780;SDS011;9519;51.890;8.970;2023-05-25T04:44:26;31.43;;;18.37;;
18780;SDS011;9519;51.890;8.970;2023-05-25T04:49:28;23.00;;;15.93;;
18780;SDS011;9519;51.890;8.970;2023-05-25T04:54:32;25.03;;;16.53;;
18780;SDS011;9519;51.890;8.970;2023-05-25T04:59:34;22.30;;;14.80;;
18780;SDS011;9519;51.890;8.970;2023-05-25T05:04:36;23.60;;;15.37;;
18780;SDS011;9519;51.890;8.970;2023-05-25T05:09:41;23.20;;;15.67;;
18780;SDS011;9519;51.890;8.970;2023-05-25T05:14:43;21.47;;;14.83;;
18780;SDS011;9519;51.890;8.970;2023-05-25T05:19:45;20.83;;;15.33;;
18780;SDS011;9519;51.890;8.970;2023-05-25T05:24:48;22.03;;;14.67;;
18780;SDS011;9519;51.890;8.970;2023-05-25T05:29:51;25.57;;;15.40;;
18780;SDS011;9519;51.890;8.970;2023-05-25T05:34:52;22.87;;;15.07;;
18780;SDS011;9519;51.890;8.970;2023-05-25T05:39:56;22.37;;;14.70;;
18780;SDS011;9519;51.890;8.970;2023-05-25T05:44:58;20.87;;;13.80;;
18780;SDS011;9519;51.890;8.970;2023-05-25T05:50:00;20.73;;;14.60;;
18780;SDS011;9519;51.890;8.970;2023-05-25T05:55:04;24.03;;;15.07;;
18780;SDS011;9519;51.890;8.970;2023-05-25T06:00:07;21.03;;;14.63;;
18780;SDS011;9519;51.890;8.970;2023-05-25T06:05:10;22.20;;;14.70;;
18780;SDS011;9519;51.890;8.970;2023-05-25T06:10:14;19.40;;;13.63;;
18780;SDS011;9519;51.890;8.970;2023-05-25T06:15:16;21.40;;;14.27;;
18780;SDS011;9519;51.890;8.970;2023-05-25T06:20:18;21.33;;;14.33;;
18780;SDS011;9519;51.890;8.970;2023-05-25T06:25:21;27.03;;;14.97;;
18780;SDS011;9519;51.890;8.970;2023-05-25T06:30:24;23.63;;;14.53;;
18780;SDS011;9519;51.890;8.970;2023-05-25T06:35:26;21.23;;;12.60;;
18780;SDS011;9519;51.890;8.970;2023-05-25T06:40:29;22.23;;;13.83;;
18780;SDS011;9519;51.890;8.970;2023-05-25T06:45:31;18.07;;;11.53;;
18780;SDS011;9519;51.890;8.970;2023-05-25T06:50:33;22.37;;;13.17;;
18780;SDS011;9519;51.890;8.970;2023-05-25T06:55:37;21.43;;;11.80;;
18780;SDS011;9519;51.890;8.970;2023-05-25T07:00:40;19.40;;;10.60;;
18780;SDS011;9519;51.890;8.970;2023-05-25T07:05:42;19.13;;;10.00;;
18780;SDS011;9519;51.890;8.970;2023-05-25T07:10:46;17.63;;;10.30;;
18780;SDS011;9519;51.890;8.970;2023-05-25T07:15:47;21.33;;;10.00;;
18780;SDS011;9519;51.890;8.970;2023-05-25T07:20:51;20.53;;;10.50;;
18780;SDS011;9519;51.890;8.970;2023-05-25T07:25:57;22.57;;;10.20;;
18780;SDS011;9519;51.890;8.970;2023-05-25T07:30:59;18.60;;;10.57;;
18780;SDS011;9519;51.890;8.970;2023-05-25T07:36:01;18.93;;;10.60;;
18780;SDS011;9519;51.890;8.970;2023-05-25T07:41:05;21.33;;;11.43;;
18780;SDS011;9519;51.890;8.970;2023-05-25T07:46:07;24.23;;;12.30;;
18780;SDS011;9519;51.890;8.970;2023-05-25T07:51:09;23.90;;;12.17;;
18780;SDS011;9519;51.890;8.970;2023-05-25T07:56:12;22.20;;;13.13;;
18780;SDS011;9519;51.890;8.970;2023-05-25T08:01:15;21.17;;;14.10;;
18780;SDS011;9519;51.890;8.970;2023-05-25T08:06:17;23.87;;;13.97;;
18780;SDS011;9519;51.890;8.970;2023-05-25T08:11:22;22.60;;;13.43;;
18780;SDS011;9519;51.890;8.970;2023-05-25T08:16:25;25.30;;;15.47;;
18780;SDS011;9519;51.890;8.970;2023-05-25T08:21:27;23.70;;;14.53;;
18780;SDS011;9519;51.890;8.970;2023-05-25T08:26:30;17.90;;;13.60;;
18780;SDS011;9519;51.890;8.970;2023-05-25T08:31:35;24.27;;;14.43;;
18780;SDS011;9519;51.890;8.970;2023-05-25T08:36:37;20.40;;;13.13;;
18780;SDS011;9519;51.890;8.970;2023-05-25T08:41:42;23.37;;;14.07;;
18780;SDS011;9519;51.890;8.970;2023-05-25T08:46:45;24.53;;;14.37;;
18780;SDS011;9519;51.890;8.970;2023-05-25T08:51:49;24.23;;;13.70;;
18780;SDS011;9519;51.890;8.970;2023-05-25T08:57:07;20.37;;;13.13;;
18780;SDS011;9519;51.890;8.970;2023-05-25T09:02:20;20.57;;;13.40;;
18780;SDS011;9519;51.890;8.970;2023-05-25T09:07:33;22.00;;;14.43;;
18780;SDS011;9519;51.890;8.970;2023-05-25T09:12:37;23.47;;;13.80;;
18780;SDS011;9519;51.890;8.970;2023-05-25T09:17:41;19.67;;;14.13;;
18780;SDS011;9519;51.890;8.970;2023-05-25T09:22:43;20.23;;;14.10;;
18780;SDS011;9519;51.890;8.970;2023-05-25T09:27:48;25.87;;;14.07;;
18780;SDS011;9519;51.890;8.970;2023-05-25T09:32:51;21.90;;;14.13;;
18780;SDS011;9519;51.890;8.970;2023-05-25T09:37:54;24.73;;;14.93;;
18780;SDS011;9519;51.890;8.970;2023-05-25T09:42:58;24.83;;;14.50;;
18780;SDS011;9519;51.890;8.970;2023-05-25T09:48:00;21.27;;;14.20;;
18780;SDS011;9519;51.890;8.970;2023-05-25T09:53:02;28.20;;;16.20;;
18780;SDS011;9519;51.890;8.970;2023-05-25T09:58:06;26.67;;;16.33;;
18780;SDS011;9519;51.890;8.970;2023-05-25T10:03:08;22.27;;;14.93;;
18780;SDS011;9519;51.890;8.970;2023-05-25T10:08:13;23.13;;;15.60;;
18780;SDS011;9519;51.890;8.970;2023-05-25T10:13:21;22.43;;;16.30;;
18780;SDS011;9519;51.890;8.970;2023-05-25T10:18:29;22.23;;;15.17;;
18780;SDS011;9519;51.890;8.970;2023-05-25T10:23:36;23.50;;;13.63;;
18780;SDS011;9519;51.890;8.970;2023-05-25T10:28:43;21.97;;;14.17;;
18780;SDS011;9519;51.890;8.970;2023-05-25T10:33:50;19.67;;;13.50;;
18780;SDS011;9519;51.890;8.970;2023-05-25T10:38:52;19.97;;;12.67;;
18780;SDS011;9519;51.890;8.970;2023-05-25T10:43:56;17.97;;;12.10;;
18780;SDS011;9519;51.890;8.970;2023-05-25T10:48:59;18.13;;;11.83;;
18780;SDS011;9519;51.890;8.970;2023-05-25T10:54:01;14.50;;;10.37;;
18780;SDS011;9519;51.890;8.970;2023-05-25T10:59:05;15.93;;;10.37;;
18780;SDS011;9519;51.890;8.970;2023-05-25T11:04:14;21.40;;;10.50;;
18780;SDS011;9519;51.890;8.970;2023-05-25T11:09:22;21.70;;;10.93;;
18780;SDS011;9519;51.890;8.970;2023-05-25T11:14:28;15.57;;;10.13;;
18780;SDS011;9519;51.890;8.970;2023-05-25T11:19:37;20.00;;;10.67;;
18780;SDS011;9519;51.890;8.970;2023-05-25T11:24:42;18.30;;;9.67;;
18780;SDS011;9519;51.890;8.970;2023-05-25T11:29:47;20.70;;;10.47;;
18780;SDS011;9519;51.890;8.970;2023-05-25T11:34:51;19.10;;;10.20;;
18780;SDS011;9519;51.890;8.970;2023-05-25T11:39:54;17.17;;;10.00;;
18780;SDS011;9519;51.890;8.970;2023-05-25T11:45:01;17.20;;;10.20;;
18780;SDS011;9519;51.890;8.970;2023-05-25T11:50:04;17.97;;;11.67;;
18780;SDS011;9519;51.890;8.970;2023-05-25T11:55:09;19.45;;;10.52;;
18780;SDS011;9519;51.890;8.970;2023-05-25T12:00:22;20.10;;;10.87;;
18780;SDS011;9519;51.890;8.970;2023-05-25T12:05:35;23.27;;;10.07;;
18780;SDS011;9519;51.890;8.970;2023-05-25T12:10:47;19.13;;;11.70;;
18780;SDS011;9519;51.890;8.970;2023-05-25T12:15:52;18.08;;;9.07;;
18780;SDS011;9519;51.890;8.970;2023-05-25T12:20:56;18.80;;;11.27;;
18780;SDS011;9519;51.890;8.970;2023-05-25T12:26:07;19.83;;;11.80;;
18780;SDS011;9519;51.890;8.970;2023-05-25T12:31:21;18.57;;;11.57;;
18780;SDS011;9519;51.890;8.970;2023-05-25T12:36:34;20.27;;;13.57;;
18780;SDS011;9519;51.890;8.970;2023-05-25T12:41:45;20.40;;;12.38;;
18780;SDS011;9519;51.890;8.970;2023-05-25T12:46:51;20.60;;;11.55;;
18780;SDS011;9519;51.890;8.970;2023-05-25T12:51:55;17.20;;;10.20;;
18780;SDS011;9519;51.890;8.970;2023-05-25T12:56:58;23.70;;;11.70;;
18780;SDS011;9519;51.890;8.970;2023-05-25T13:02:03;18.02;;;10.70;;
18780;SDS011;9519;51.890;8.970;2023-05-25T13:07:07;17.20;;;10.13;;
18780;SDS011;9519;51.890;8.970;2023-05-25T13:12:09;17.42;;;9.60;;
18780;SDS011;9519;51.890;8.970;2023-05-25T13:17:16;16.25;;;9.23;;
18780;SDS011;9519;51.890;8.970;2023-05-25T13:22:18;17.85;;;8.68;;
18780;SDS011;9519;51.890;8.970;2023-05-25T13:27:20;14.30;;;9.00;;
18780;SDS011;9519;51.890;8.970;2023-05-25T13:32:24;20.80;;;9.27;;
18780;SDS011;9519;51.890;8.970;2023-05-25T13:37:26;16.55;;;8.60;;
18780;SDS011;9519;51.890;8.970;2023-05-25T13:42:28;13.60;;;7.95;;
18780;SDS011;9519;51.890;8.970;2023-05-25T13:47:32;13.02;;;7.30;;
18780;SDS011;9519;51.890;8.970;2023-05-25T13:52:34;15.77;;;8.13;;
18780;SDS011;9519;51.890;8.970;2023-05-25T13:57:36;10.90;;;7.60;;
18780;SDS011;9519;51.890;8.970;2023-05-25T14:02:40;14.80;;;8.25;;
18780;SDS011;9519;51.890;8.970;2023-05-25T14:07:42;12.77;;;8.35;;
18780;SDS011;9519;51.890;8.970;2023-05-25T14:12:44;15.07;;;8.73;;
18780;SDS011;9519;51.890;8.970;2023-05-25T14:17:47;15.07;;;8.57;;
18780;SDS011;9519;51.890;8.970;2023-05-25T14:22:49;13.37;;;6.73;;
18780;SDS011;9519;51.890;8.970;2023-05-25T14:27:51;11.95;;;7.00;;
18780;SDS011;9519;51.890;8.970;2023-05-25T14:32:55;15.63;;;8.15;;
18780;SDS011;9519;51.890;8.970;2023-05-25T14:37:57;16.13;;;6.60;;
18780;SDS011;9519;51.890;8.970;2023-05-25T14:43:01;12.40;;;5.90;;
18780;SDS011;9519;51.890;8.970;2023-05-25T14:48:05;19.42;;;8.40;;
18780;SDS011;9519;51.890;8.970;2023-05-25T14:53:07;12.85;;;6.55;;
18780;SDS011;9519;51.890;8.970;2023-05-25T14:58:09;12.82;;;6.10;;
18780;SDS011;9519;51.890;8.970;2023-05-25T15:03:13;15.50;;;6.70;;
18780;SDS011;9519;51.890;8.970;2023-05-25T15:08:15;11.23;;;5.50;;
18780;SDS011;9519;51.890;8.970;2023-05-25T15:13:17;12.10;;;6.35;;
18780;SDS011;9519;51.890;8.970;2023-05-25T15:18:22;15.68;;;6.95;;
18780;SDS011;9519;51.890;8.970;2023-05-25T15:23:25;16.05;;;7.10;;
18780;SDS011;9519;51.890;8.970;2023-05-25T15:28:27;16.13;;;8.18;;
18780;SDS011;9519;51.890;8.970;2023-05-25T15:33:30;12.02;;;6.00;;
18780;SDS011;9519;51.890;8.970;2023-05-25T15:38:32;13.73;;;6.55;;
18780;SDS011;9519;51.890;8.970;2023-05-25T15:43:34;17.88;;;7.03;;
18780;SDS011;9519;51.890;8.970;2023-05-25T15:48:37;11.30;;;5.72;;
18780;SDS011;9519;51.890;8.970;2023-05-25T15:53:40;10.18;;;5.38;;
18780;SDS011;9519;51.890;8.970;2023-05-25T15:58:42;14.75;;;5.93;;
18780;SDS011;9519;51.890;8.970;2023-05-25T16:03:49;14.23;;;6.25;;
18780;SDS011;9519;51.890;8.970;2023-05-25T16:08:51;17.10;;;5.35;;
18780;SDS011;9519;51.890;8.970;2023-05-25T16:13:53;11.48;;;4.78;;
18780;SDS011;9519;51.890;8.970;2023-05-25T16:18:57;16.50;;;5.80;;
18780;SDS011;9519;51.890;8.970;2023-05-25T16:24:04;14.05;;;5.30;;
18780;SDS011;9519;51.890;8.970;2023-05-25T16:29:07;20.15;;;5.82;;
18780;SDS011;9519;51.890;8.970;2023-05-25T16:34:10;15.93;;;4.90;;
18780;SDS011;9519;51.890;8.970;2023-05-25T16:39:13;19.50;;;5.20;;
18780;SDS011;9519;51.890;8.970;2023-05-25T16:44:15;18.65;;;5.20;;
18780;SDS011;9519;51.890;8.970;2023-05-25T16:49:18;13.48;;;4.70;;
18780;SDS011;9519;51.890;8.970;2023-05-25T16:54:20;15.63;;;5.20;;
18780;SDS011;9519;51.890;8.970;2023-05-25T16:59:22;17.13;;;4.68;;
18780;SDS011;9519;51.890;8.970;2023-05-25T17:04:27;15.73;;;4.90;;
18780;SDS011;9519;51.890;8.970;2023-05-25T17:09:29;19.40;;;4.65;;
18780;SDS011;9519;51.890;8.970;2023-05-25T17:14:31;16.65;;;5.25;;
18780;SDS011;9519;51.890;8.970;2023-05-25T17:19:34;16.90;;;4.63;;
18780;SDS011;9519;51.890;8.970;2023-05-25T17:24:36;16.77;;;5.25;;
18780;SDS011;9519;51.890;8.970;2023-05-25T17:29:38;19.42;;;4.45;;
18780;SDS011;9519;51.890;8.970;2023-05-25T17:34:42;16.67;;;4.57;;
18780;SDS011;9519;51.890;8.970;2023-05-25T17:39:44;21.42;;;5.10;;
18780;SDS011;9519;51.890;8.970;2023-05-25T17:44:46;17.45;;;4.90;;
18780;SDS011;9519;51.890;8.970;2023-05-25T17:49:49;22.15;;;5.93;;
18780;SDS011;9519;51.890;8.970;2023-05-25T17:54:51;19.67;;;6.22;;
18780;SDS011;9519;51.890;8.970;2023-05-25T17:59:53;21.17;;;6.30;;
18780;SDS011;9519;51.890;8.970;2023-05-25T18:04:57;21.60;;;6.03;;
18780;SDS011;9519;51.890;8.970;2023-05-25T18:09:59;19.38;;;5.53;;
18780;SDS011;9519;51.890;8.970;2023-05-25T18:15:01;21.55;;;6.45;;
18780;SDS011;9519;51.890;8.970;2023-05-25T18:20:05;22.70;;;5.88;;
18780;SDS011;9519;51.890;8.970;2023-05-25T18:25:09;22.30;;;6.55;;
18780;SDS011;9519;51.890;8.970;2023-05-25T18:30:11;25.13;;;7.57;;
18780;SDS011;9519;51.890;8.970;2023-05-25T18:35:16;31.77;;;11.75;;
18780;SDS011;9519;51.890;8.970;2023-05-25T18:40:19;24.05;;;6.15;;
18780;SDS011;9519;51.890;8.970;2023-05-25T18:45:24;28.13;;;7.25;;
18780;SDS011;9519;51.890;8.970;2023-05-25T18:50:27;22.52;;;6.38;;
18780;SDS011;9519;51.890;8.970;2023-05-25T18:55:30;25.73;;;8.18;;
18780;SDS011;9519;51.890;8.970;2023-05-25T19:00:32;25.75;;;7.75;;
18780;SDS011;9519;51.890;8.970;2023-05-25T19:05:36;24.85;;;7.93;;
18780;SDS011;9519;51.890;8.970;2023-05-25T19:10:38;25.63;;;7.50;;
18780;SDS011;9519;51.890;8.970;2023-05-25T19:15:41;27.75;;;7.40;;
18780;SDS011;9519;51.890;8.970;2023-05-25T19:20:47;25.48;;;6.40;;
18780;SDS011;9519;51.890;8.970;2023-05-25T19:25:49;29.27;;;7.45;;
18780;SDS011;9519;51.890;8.970;2023-05-25T19:30:51;25.63;;;7.55;;
18780;SDS011;9519;51.890;8.970;2023-05-25T19:35:54;28.23;;;7.13;;
18780;SDS011;9519;51.890;8.970;2023-05-25T19:40:56;33.80;;;8.97;;
18780;SDS011;9519;51.890;8.970;2023-05-25T19:45:58;27.43;;;8.50;;
18780;SDS011;9519;51.890;8.970;2023-05-25T19:51:02;32.63;;;10.02;;
18780;SDS011;9519;51.890;8.970;2023-05-25T19:56:05;33.50;;;8.10;;
18780;SDS011;9519;51.890;8.970;2023-05-25T20:01:07;24.58;;;7.35;;
18780;SDS011;9519;51.890;8.970;2023-05-25T20:06:11;26.35;;;7.32;;
18780;SDS011;9519;51.890;8.970;2023-05-25T20:11:13;30.13;;;7.97;;
18780;SDS011;9519;51.890;8.970;2023-05-25T20:16:15;27.63;;;7.72;;
18780;SDS011;9519;51.890;8.970;2023-05-25T20:21:18;32.63;;;8.23;;
18780;SDS011;9519;51.890;8.970;2023-05-25T20:26:20;40.80;;;9.80;;
18780;SDS011;9519;51.890;8.970;2023-05-25T20:31:22;31.43;;;9.37;;
18780;SDS011;9519;51.890;8.970;2023-05-25T20:36:26;27.10;;;7.50;;
18780;SDS011;9519;51.890;8.970;2023-05-25T20:41:28;27.23;;;7.93;;
18780;SDS011;9519;51.890;8.970;2023-05-25T20:46:30;32.83;;;8.17;;
18780;SDS011;9519;51.890;8.970;2023-05-25T20:51:33;28.30;;;7.43;;
18780;SDS011;9519;51.890;8.970;2023-05-25T20:56:35;32.90;;;7.93;;
18780;SDS011;9519;51.890;8.970;2023-05-25T21:01:37;26.27;;;8.10;;
18780;SDS011;9519;51.890;8.970;2023-05-25T21:06:41;26.60;;;7.73;;
18780;SDS011;9519;51.890;8.970;2023-05-25T21:11:43;30.23;;;7.73;;
18780;SDS011;9519;51.890;8.970;2023-05-25T21:16:44;35.07;;;8.90;;
18780;SDS011;9519;51.890;8.970;2023-05-25T21:21:50;32.70;;;8.40;;
18780;SDS011;9519;51.890;8.970;2023-05-25T21:26:52;25.27;;;7.20;;
18780;SDS011;9519;51.890;8.970;2023-05-25T21:31:54;30.73;;;7.93;;
18780;SDS011;9519;51.890;8.970;2023-05-25T21:36:59;26.83;;;7.57;;
18780;SDS011;9519;51.890;8.970;2023-05-25T21:42:02;33.43;;;7.53;;
18780;SDS011;9519;51.890;8.970;2023-05-25T21:47:05;35.90;;;8.83;;
18780;SDS011;9519;51.890;8.970;2023-05-25T21:52:09;34.00;;;8.87;;
18780;SDS011;9519;51.890;8.970;2023-05-25T21:57:11;35.20;;;8.07;;
18780;SDS011;9519;51.890;8.970;2023-05-25T22:02:13;29.97;;;8.67;;
18780;SDS011;9519;51.890;8.970;2023-05-25T22:07:16;32.63;;;7.60;;
18780;SDS011;9519;51.890;8.970;2023-05-25T22:12:18;39.27;;;8.40;;
18780;SDS011;9519;51.890;8.970;2023-05-25T22:17:20;34.37;;;8.60;;
18780;SDS011;9519;51.890;8.970;2023-05-25T22:22:24;33.83;;;7.53;;
18780;SDS011;9519;51.890;8.970;2023-05-25T22:27:26;33.70;;;7.40;;
18780;SDS011;9519;51.890;8.970;2023-05-25T22:32:28;31.83;;;7.50;;
18780;SDS011;9519;51.890;8.970;2023-05-25T22:37:33;26.53;;;6.87;;
18780;SDS011;9519;51.890;8.970;2023-05-25T22:42:35;29.07;;;7.03;;
18780;SDS011;9519;51.890;8.970;2023-05-25T22:47:37;30.80;;;6.47;;
18780;SDS011;9519;51.890;8.970;2023-05-25T22:52:41;32.63;;;8.13;;
18780;SDS011;9519;51.890;8.970;2023-05-25T22:57:43;26.23;;;6.80;;
18780;SDS011;9519;51.890;8.970;2023-05-25T23:02:45;38.13;;;7.60;;
18780;SDS011;9519;51.890;8.970;2023-05-25T23:07:48;32.77;;;7.57;;
18780;SDS011;9519;51.890;8.970;2023-05-25T23:12:50;28.00;;;6.97;;
18780;SDS011;9519;51.890;8.970;2023-05-25T23:17:53;35.33;;;7.47;;
18780;SDS011;9519;51.890;8.970;2023-05-25T23:22:57;28.60;;;6.90;;
18780;SDS011;9519;51.890;8.970;2023-05-25T23:27:59;29.17;;;6.57;;
18780;SDS011;9519;51.890;8.970;2023-05-25T23:33:03;26.27;;;6.97;;
18780;SDS011;9519;51.890;8.970;2023-05-25T23:38:08;37.47;;;7.27;;
18780;SDS011;9519;51.890;8.970;2023-05-25T23:43:10;33.83;;;6.77;;
18780;SDS011;9519;51.890;8.970;2023-05-25T23:48:13;34.33;;;9.00;;
18780;SDS011;9519;51.890;8.970;2023-05-25T23:53:16;38.07;;;7.87;;
18780;SDS011;9519;51.890;8.970;2023-05-25T23:58:18;28.97;;;7.30;;
